createdAt,value
2018-04-19T00:00:30.690Z,16.20
2018-04-19T00:02:59.797Z,16.20
2018-04-19T00:05:28.078Z,16.10
2018-04-19T00:07:56.392Z,16.10
2018-04-19T00:10:24.678Z,16.10
2018-04-19T00:12:52.970Z,16.10
2018-04-19T00:15:21.757Z,16.00
2018-04-19T00:17:50.037Z,16.00
2018-04-19T00:20:18.344Z,16.00
2018-04-19T00:22:47.086Z,15.90
2018-04-19T00:25:16.192Z,15.90
2018-04-19T00:27:44.485Z,15.90
2018-04-19T00:30:12.794Z,15.90
2018-04-19T00:32:41.213Z,15.80
2018-04-19T00:35:10.362Z,15.70
2018-04-19T00:37:38.731Z,15.70
2018-04-19T00:40:07.030Z,15.70
2018-04-19T00:42:35.308Z,15.70
2018-04-19T00:45:04.384Z,15.60
2018-04-19T00:47:32.668Z,15.50
2018-04-19T00:50:01.029Z,15.60
2018-04-19T00:55:30.098Z,15.40
2018-04-19T00:58:00.005Z,15.40
2018-04-19T01:00:28.294Z,15.30
2018-04-19T01:02:57.461Z,15.40
2018-04-19T01:05:26.533Z,15.20
2018-04-19T01:07:54.862Z,15.20
2018-04-19T01:10:23.290Z,15.20
2018-04-19T01:12:51.484Z,15.10
2018-04-19T01:15:20.574Z,15.00
2018-04-19T01:17:49.614Z,15.00
2018-04-19T01:20:17.886Z,14.90
2018-04-19T01:22:46.135Z,14.90
2018-04-19T01:25:15.057Z,14.80
2018-04-19T01:27:43.325Z,14.80
2018-04-19T01:30:11.592Z,14.70
2018-04-19T01:32:40.018Z,14.70
2018-04-19T01:35:09.079Z,14.60
2018-04-19T01:37:37.317Z,14.50
2018-04-19T01:40:05.593Z,14.60
2018-04-19T01:42:33.861Z,14.50
2018-04-19T01:45:02.959Z,14.40
2018-04-19T01:47:31.185Z,14.30
2018-04-19T01:49:59.489Z,14.40
2018-04-19T01:52:28.525Z,14.30
2018-04-19T01:54:56.796Z,14.20
2018-04-19T01:57:25.093Z,14.30
2018-04-19T01:59:53.390Z,14.30
2018-04-19T02:02:21.777Z,14.20
2018-04-19T02:04:50.088Z,14.20
2018-04-19T02:07:18.415Z,14.20
2018-04-19T02:09:46.826Z,14.20
2018-04-19T02:12:16.664Z,14.20
2018-04-19T02:14:44.941Z,14.20
2018-04-19T02:17:13.183Z,14.30
2018-04-19T02:19:42.224Z,14.20
2018-04-19T02:22:10.483Z,14.20
2018-04-19T02:24:38.762Z,14.20
2018-04-19T02:27:07.017Z,14.20
2018-04-19T02:29:35.298Z,14.20
2018-04-19T02:32:03.580Z,14.10
2018-04-19T02:34:31.878Z,14.10
2018-04-19T02:37:00.343Z,14.10
2018-04-19T02:39:28.669Z,14.10
2018-04-19T02:41:56.929Z,14.00
2018-04-19T02:44:25.174Z,14.00
2018-04-19T02:46:53.450Z,14.00
2018-04-19T02:49:21.701Z,14.00
2018-04-19T02:51:49.989Z,13.90
2018-04-19T02:54:18.235Z,13.90
2018-04-19T02:56:46.536Z,13.80
2018-04-19T02:59:14.969Z,13.80
2018-04-19T03:01:43.195Z,13.80
2018-04-19T03:04:11.465Z,13.80
2018-04-19T03:06:39.740Z,13.80
2018-04-19T03:09:08.013Z,13.80
2018-04-19T03:11:36.293Z,13.70
2018-04-19T03:14:04.541Z,13.70
2018-04-19T03:16:33.562Z,13.70
2018-04-19T03:19:01.847Z,13.60
2018-04-19T03:21:30.115Z,13.70
2018-04-19T03:23:58.401Z,13.70
2018-04-19T03:26:26.984Z,13.60
2018-04-19T03:28:56.079Z,13.60
2018-04-19T03:31:24.483Z,13.60
2018-04-19T03:33:52.786Z,13.60
2018-04-19T03:36:21.012Z,13.60
2018-04-19T03:38:50.234Z,13.50
2018-04-19T03:41:18.529Z,13.50
2018-04-19T03:43:47.583Z,13.50
2018-04-19T03:46:15.935Z,13.40
2018-04-19T03:48:44.193Z,13.50
2018-04-19T03:51:12.476Z,13.40
2018-04-19T03:53:40.737Z,13.40
2018-04-19T03:56:08.999Z,13.40
2018-04-19T03:58:38.049Z,13.40
2018-04-19T04:01:06.403Z,13.30
2018-04-19T04:03:34.606Z,13.30
2018-04-19T04:06:02.874Z,13.30
2018-04-19T04:08:31.130Z,13.20
2018-04-19T04:10:59.418Z,13.20
2018-04-19T04:13:27.692Z,13.20
2018-04-19T04:15:55.960Z,13.20
2018-04-19T04:18:36.226Z,13.20
2018-04-19T04:21:16.374Z,13.20
2018-04-19T04:23:52.466Z,13.10
2018-04-19T04:26:20.720Z,13.10
2018-04-19T04:28:49.018Z,13.10
2018-04-19T04:31:17.312Z,13.10
2018-04-19T04:33:45.571Z,13.00
2018-04-19T04:36:14.647Z,13.00
2018-04-19T04:38:42.932Z,13.00
2018-04-19T04:41:11.149Z,13.00
2018-04-19T04:43:39.418Z,13.10
2018-04-19T04:46:07.986Z,13.10
2018-04-19T04:48:36.339Z,13.10
2018-04-19T04:51:04.673Z,13.10
2018-04-19T04:53:32.938Z,13.10
2018-04-19T04:56:01.240Z,13.20
2018-04-19T04:58:30.471Z,13.20
2018-04-19T05:00:58.709Z,13.10
2018-04-19T05:03:27.025Z,13.20
2018-04-19T05:05:56.045Z,13.30
2018-04-19T05:08:24.306Z,13.20
2018-04-19T05:10:52.572Z,13.30
2018-04-19T05:13:21.602Z,13.60
2018-04-19T05:15:49.871Z,13.60
2018-04-19T05:18:18.172Z,14.00
2018-04-19T05:20:47.266Z,15.00
2018-04-19T05:23:16.351Z,15.50
2018-04-19T05:25:44.633Z,15.50
2018-04-19T05:28:12.936Z,16.10
2018-04-19T05:30:41.250Z,16.50
2018-04-19T05:33:09.470Z,17.00
2018-04-19T05:35:37.779Z,17.40
2018-04-19T05:38:06.058Z,17.70
2018-04-19T05:40:35.097Z,18.30
2018-04-19T05:43:03.345Z,18.30
2018-04-19T05:45:31.622Z,18.80
2018-04-19T05:47:59.997Z,19.00
2018-04-19T05:50:28.257Z,19.20
2018-04-19T05:52:56.607Z,19.40
2018-04-19T05:55:24.837Z,19.70
2018-04-19T05:57:53.264Z,19.90
2018-04-19T06:00:21.501Z,20.10
2018-04-19T06:02:50.629Z,20.30
2018-04-19T06:05:19.066Z,20.30
2018-04-19T06:07:47.321Z,20.40
2018-04-19T06:10:15.637Z,20.40
2018-04-19T06:12:43.906Z,20.30
2018-04-19T06:15:12.217Z,20.30
2018-04-19T06:17:40.441Z,20.10
2018-04-19T06:20:08.728Z,19.80
2018-04-19T06:22:36.989Z,19.40
2018-04-19T06:25:05.239Z,19.10
2018-04-19T06:27:33.525Z,18.80
2018-04-19T06:30:01.857Z,18.50
2018-04-19T06:32:30.137Z,18.40
2018-04-19T06:34:58.421Z,18.20
2018-04-19T06:37:26.679Z,18.10
2018-04-19T06:39:54.954Z,18.10
2018-04-19T06:42:23.232Z,18.00
2018-04-19T06:44:51.477Z,18.00
2018-04-19T06:47:19.761Z,18.10
2018-04-19T06:49:48.060Z,18.10
2018-04-19T06:52:16.300Z,18.20
2018-04-19T06:54:44.557Z,18.20
2018-04-19T06:57:12.806Z,18.30
2018-04-19T06:59:41.085Z,18.40
2018-04-19T07:02:10.096Z,18.60
2018-04-19T07:04:38.405Z,18.60
2018-04-19T07:07:06.698Z,18.70
2018-04-19T07:09:34.963Z,18.90
2018-04-19T07:12:03.231Z,18.90
2018-04-19T07:14:31.492Z,19.00
2018-04-19T07:16:59.729Z,19.20
2018-04-19T07:19:28.005Z,19.30
2018-04-19T07:21:56.266Z,19.40
2018-04-19T07:24:25.294Z,19.70
2018-04-19T07:26:53.538Z,19.70
2018-04-19T07:29:22.608Z,19.90
2018-04-19T07:31:50.849Z,19.90
2018-04-19T07:34:19.122Z,20.00
2018-04-19T07:36:47.393Z,20.20
2018-04-19T07:39:15.778Z,20.30
2018-04-19T07:41:44.041Z,20.40
2018-04-19T07:44:12.326Z,20.50
2018-04-19T07:46:40.577Z,20.60
2018-04-19T07:49:08.825Z,20.70
2018-04-19T07:51:37.873Z,21.00
2018-04-19T07:54:06.227Z,20.90
2018-04-19T07:56:35.229Z,21.20
2018-04-19T07:59:03.494Z,21.10
2018-04-19T08:01:31.746Z,21.30
2018-04-19T08:04:00.132Z,21.40
2018-04-19T08:06:28.426Z,21.50
2018-04-19T08:08:56.749Z,21.60
2018-04-19T08:11:25.079Z,21.70
2018-04-19T08:13:53.297Z,21.90
2018-04-19T08:16:22.327Z,22.10
2018-04-19T08:18:50.617Z,22.00
2018-04-19T08:21:18.860Z,22.20
2018-04-19T08:23:48.249Z,22.40
2018-04-19T08:26:16.481Z,22.40
2018-04-19T08:28:44.773Z,22.50
2018-04-19T08:31:13.029Z,22.60
2018-04-19T08:33:41.306Z,22.70
2018-04-19T08:36:09.547Z,22.80
2018-04-19T08:38:38.553Z,22.90
2018-04-19T08:41:06.798Z,22.80
2018-04-19T08:43:35.898Z,23.10
2018-04-19T08:46:04.187Z,23.00
2018-04-19T08:48:32.491Z,23.10
2018-04-19T08:51:00.733Z,23.20
2018-04-19T08:53:28.978Z,23.30
2018-04-19T08:55:58.113Z,23.50
2018-04-19T08:58:26.418Z,23.40
2018-04-19T09:00:54.669Z,23.60
2018-04-19T09:03:22.925Z,23.70
2018-04-19T09:05:51.200Z,23.80
2018-04-19T09:08:19.691Z,23.90
2018-04-19T09:10:47.942Z,24.00
2018-04-19T09:13:16.957Z,24.20
2018-04-19T09:15:45.239Z,24.10
2018-04-19T09:18:13.478Z,24.30
2018-04-19T09:20:42.516Z,24.50
2018-04-19T09:23:10.757Z,24.40
2018-04-19T09:25:39.035Z,24.60
2018-04-19T09:28:07.297Z,24.60
2018-04-19T09:30:36.382Z,24.80
2018-04-19T09:33:04.665Z,24.80
2018-04-19T09:35:33.701Z,25.00
2018-04-19T09:38:01.961Z,25.00
2018-04-19T09:40:30.249Z,25.10
2018-04-19T09:42:58.558Z,25.20
2018-04-19T09:45:26.827Z,25.30
2018-04-19T09:47:55.073Z,25.40
2018-04-19T09:50:23.333Z,25.50
2018-04-19T09:52:51.597Z,25.50
2018-04-19T09:55:19.861Z,25.60
2018-04-19T09:57:59.876Z,25.70
2018-04-19T10:00:28.121Z,25.80
2018-04-19T10:02:56.431Z,25.70
2018-04-19T10:05:24.702Z,25.80
2018-04-19T10:07:52.958Z,25.90
2018-04-19T10:10:21.199Z,26.00
2018-04-19T10:12:49.470Z,26.00
2018-04-19T10:15:17.713Z,26.10
2018-04-19T10:17:46.105Z,26.10
2018-04-19T10:20:15.113Z,26.20
2018-04-19T10:22:43.373Z,26.20
2018-04-19T10:25:12.459Z,26.40
2018-04-19T10:27:40.722Z,26.30
2018-04-19T10:30:09.003Z,26.50
2018-04-19T10:32:37.254Z,26.60
2018-04-19T10:35:05.507Z,26.60
2018-04-19T10:37:33.786Z,26.70
2018-04-19T10:40:02.066Z,26.70
2018-04-19T10:42:30.346Z,26.80
2018-04-19T10:44:58.604Z,26.90
2018-04-19T10:47:26.846Z,26.90
2018-04-19T10:49:55.925Z,27.00
2018-04-19T10:52:24.935Z,27.10
2018-04-19T10:54:53.953Z,27.10
2018-04-19T10:57:22.227Z,27.10
2018-04-19T10:59:50.529Z,27.10
2018-04-19T11:02:18.793Z,27.20
2018-04-19T11:04:47.026Z,27.30
2018-04-19T11:07:15.311Z,27.40
2018-04-19T11:09:43.558Z,27.40
2018-04-19T11:12:11.809Z,27.40
2018-04-19T11:14:40.077Z,27.50
2018-04-19T11:17:08.321Z,27.60
2018-04-19T11:19:36.614Z,27.60
2018-04-19T11:22:04.873Z,27.70
2018-04-19T11:24:33.128Z,27.70
2018-04-19T11:27:01.375Z,27.80
2018-04-19T11:29:32.174Z,28.00
2018-04-19T11:32:00.448Z,27.90
2018-04-19T11:34:28.764Z,27.90
2018-04-19T11:36:57.015Z,27.90
2018-04-19T11:39:25.273Z,28.00
2018-04-19T11:41:53.553Z,28.00
2018-04-19T11:44:21.816Z,28.00
2018-04-19T11:46:50.049Z,28.10
2018-04-19T11:49:18.809Z,28.20
2018-04-19T11:51:47.045Z,28.30
2018-04-19T11:54:15.310Z,28.30
2018-04-19T11:56:43.575Z,28.40
2018-04-19T11:59:11.869Z,28.40
2018-04-19T12:01:40.113Z,28.50
2018-04-19T12:04:09.136Z,28.60
2018-04-19T12:06:37.398Z,28.50
2018-04-19T12:09:05.641Z,28.60
2018-04-19T12:11:34.901Z,28.60
2018-04-19T12:14:03.243Z,28.60
2018-04-19T12:16:32.959Z,28.70
2018-04-19T12:19:01.290Z,28.60
2018-04-19T12:21:29.524Z,28.70
2018-04-19T12:23:57.842Z,28.70
2018-04-19T12:26:26.221Z,28.70
2018-04-19T12:28:54.604Z,28.70
2018-04-19T12:31:23.639Z,28.80
2018-04-19T12:33:51.956Z,28.80
2018-04-19T12:36:20.213Z,28.80
2018-04-19T12:38:48.572Z,28.80
2018-04-19T12:41:16.862Z,28.90
2018-04-19T12:43:45.131Z,28.90
2018-04-19T12:46:13.444Z,28.90
2018-04-19T12:48:43.567Z,29.00
2018-04-19T12:51:11.829Z,29.00
2018-04-19T12:53:40.096Z,29.00
2018-04-19T12:56:08.358Z,29.10
2018-04-19T12:58:36.653Z,29.10
2018-04-19T13:01:04.963Z,29.10
2018-04-19T13:03:33.257Z,29.20
2018-04-19T13:06:01.493Z,29.20
2018-04-19T13:08:30.782Z,29.30
2018-04-19T13:10:59.036Z,29.30
2018-04-19T13:13:27.330Z,29.30
2018-04-19T13:15:57.580Z,29.30
2018-04-19T13:18:26.587Z,29.40
2018-04-19T13:20:54.860Z,29.40
2018-04-19T13:23:23.107Z,29.40
2018-04-19T13:25:52.153Z,29.30
2018-04-19T13:28:20.422Z,29.30
2018-04-19T13:30:48.690Z,29.30
2018-04-19T13:33:17.013Z,29.40
2018-04-19T13:35:45.289Z,29.40
2018-04-19T13:38:13.513Z,29.40
2018-04-19T13:40:41.796Z,29.50
2018-04-19T13:43:10.070Z,29.50
2018-04-19T13:45:38.317Z,29.60
2018-04-19T13:48:07.317Z,29.60
2018-04-19T13:50:35.637Z,29.60
2018-04-19T13:53:03.899Z,29.60
2018-04-19T13:55:32.154Z,29.70
2018-04-19T13:58:00.410Z,29.80
2018-04-19T14:00:28.717Z,29.80
2018-04-19T14:02:56.977Z,29.70
2018-04-19T14:05:25.402Z,29.60
2018-04-19T14:07:53.649Z,29.70
2018-04-19T14:10:21.899Z,29.70
2018-04-19T14:12:50.154Z,29.70
2018-04-19T14:15:19.293Z,29.70
2018-04-19T14:17:49.189Z,29.70
2018-04-19T14:20:17.450Z,29.70
2018-04-19T14:22:45.709Z,29.70
2018-04-19T14:25:15.586Z,29.70
2018-04-19T14:27:43.835Z,29.60
2018-04-19T14:30:12.111Z,29.70
2018-04-19T14:32:41.228Z,29.80
2018-04-19T14:35:09.472Z,29.80
2018-04-19T14:37:37.808Z,29.70
2018-04-19T14:40:06.061Z,29.70
2018-04-19T14:42:34.352Z,29.70
2018-04-19T14:45:02.626Z,29.70
2018-04-19T14:47:30.874Z,29.70
2018-04-19T14:49:59.210Z,29.70
2018-04-19T14:52:27.546Z,29.70
2018-04-19T14:54:55.839Z,29.80
2018-04-19T14:57:24.915Z,29.90
2018-04-19T14:59:53.167Z,29.80
2018-04-19T15:02:21.421Z,29.90
2018-04-19T15:04:49.702Z,29.80
2018-04-19T15:07:17.993Z,29.80
2018-04-19T15:09:46.277Z,29.90
2018-04-19T15:12:14.517Z,29.90
2018-04-19T15:14:42.777Z,29.80
2018-04-19T15:17:11.053Z,29.80
2018-04-19T15:19:39.330Z,29.80
2018-04-19T15:22:07.588Z,29.80
2018-04-19T15:24:36.611Z,29.90
2018-04-19T15:27:04.864Z,29.80
2018-04-19T15:29:33.135Z,29.80
2018-04-19T15:45:01.397Z,29.80
2018-04-19T15:47:29.669Z,29.80
2018-04-19T15:49:58.059Z,29.90
2018-04-19T15:52:27.053Z,29.90
2018-04-19T15:54:55.301Z,29.80
2018-04-19T15:57:23.583Z,29.90
2018-04-19T15:59:51.879Z,29.90
2018-04-19T16:02:20.146Z,29.70
2018-04-19T16:04:48.480Z,29.70
2018-04-19T16:07:16.691Z,29.70
2018-04-19T16:09:44.929Z,29.50
2018-04-19T16:12:13.205Z,29.50
2018-04-19T16:14:41.464Z,29.40
2018-04-19T16:17:09.780Z,29.30
2018-04-19T16:19:37.989Z,29.20
2018-04-19T16:22:06.285Z,29.10
2018-04-19T16:24:34.542Z,29.10
2018-04-19T16:27:02.840Z,29.00
2018-04-19T16:29:31.719Z,29.00
2018-04-19T16:32:00.023Z,28.90
2018-04-19T16:34:28.372Z,28.90
2018-04-19T16:36:56.624Z,28.90
2018-04-19T16:39:24.849Z,28.80
2018-04-19T16:41:54.011Z,28.60
2018-04-19T16:44:22.277Z,28.60
2018-04-19T16:46:50.542Z,28.60
2018-04-19T16:49:18.807Z,28.60
2018-04-19T16:51:47.119Z,28.50
2018-04-19T16:54:15.341Z,28.40
2018-04-19T16:56:43.683Z,28.40
2018-04-19T16:59:11.968Z,28.30
2018-04-19T17:01:40.197Z,28.20
2018-04-19T17:04:08.474Z,28.20
2018-04-19T17:06:36.740Z,28.10
2018-04-19T17:09:05.737Z,28.10
2018-04-19T17:11:33.978Z,28.00
2018-04-19T17:14:03.009Z,27.80
2018-04-19T17:16:31.264Z,27.80
2018-04-19T17:18:59.558Z,27.70
2018-04-19T17:21:27.882Z,27.60
2018-04-19T17:23:56.917Z,27.40
2018-04-19T17:26:25.917Z,27.30
2018-04-19T17:28:54.229Z,27.30
2018-04-19T17:31:22.461Z,27.20
2018-04-19T17:33:50.789Z,27.00
2018-04-19T17:36:19.795Z,26.80
2018-04-19T17:38:48.068Z,26.80
2018-04-19T17:41:17.098Z,26.60
2018-04-19T17:43:45.347Z,26.60
2018-04-19T17:46:13.690Z,26.50
2018-04-19T17:48:42.726Z,26.30
2018-04-19T17:51:11.030Z,26.30
2018-04-19T17:53:40.132Z,26.20
2018-04-19T17:56:08.354Z,26.10
2018-04-19T17:58:36.643Z,26.10
2018-04-19T18:01:04.977Z,26.00
2018-04-19T18:03:33.230Z,26.00
2018-04-19T18:06:01.522Z,25.90
2018-04-19T18:08:29.773Z,25.80
2018-04-19T18:10:58.035Z,25.70
2018-04-19T18:13:26.298Z,25.60
2018-04-19T18:15:54.563Z,25.50
2018-04-19T18:18:22.814Z,25.50
2018-04-19T18:20:51.863Z,25.30
2018-04-19T18:23:20.119Z,25.20
2018-04-19T18:25:48.395Z,25.20
2018-04-19T18:28:16.721Z,25.10
2018-04-19T18:30:44.969Z,25.10
2018-04-19T18:33:13.282Z,25.00
2018-04-19T18:35:42.361Z,24.80
2018-04-19T18:38:13.737Z,24.80
2018-04-19T18:40:42.043Z,24.70
2018-04-19T18:43:10.582Z,24.60
2018-04-19T18:45:39.619Z,24.40
2018-04-19T18:48:07.999Z,24.40
2018-04-19T18:50:36.326Z,24.40
2018-04-19T18:53:04.604Z,24.30
2018-04-19T18:55:33.646Z,24.10
2018-04-19T18:58:01.996Z,24.10
2018-04-19T19:00:30.293Z,24.00
2018-04-19T19:02:58.564Z,24.00
2018-04-19T19:05:26.828Z,23.90
2018-04-19T19:07:55.073Z,23.80
2018-04-19T19:10:24.199Z,23.60
2018-04-19T19:12:52.521Z,23.60
2018-04-19T19:18:48.818Z,23.40
2018-04-19T19:21:17.182Z,23.30
2018-04-19T19:23:46.234Z,23.10
2018-04-19T19:26:14.496Z,23.10
2018-04-19T19:28:42.753Z,23.00
2018-04-19T19:31:11.032Z,23.00
2018-04-19T19:33:39.286Z,22.90
2018-04-19T19:36:07.562Z,22.80
2018-04-19T19:38:36.007Z,22.70
2018-04-19T19:41:04.270Z,22.60
2018-04-19T19:43:32.547Z,22.50
2018-04-19T19:46:00.809Z,22.50
2018-04-19T19:48:29.120Z,22.40
2018-04-19T19:50:57.379Z,22.30
2018-04-19T19:53:25.625Z,22.20
2018-04-19T19:55:54.049Z,22.20
2018-04-19T19:58:23.080Z,22.00
2018-04-19T20:00:51.378Z,21.90
2018-04-19T20:03:19.993Z,21.90
2018-04-19T20:05:49.120Z,21.90
2018-04-19T20:08:18.133Z,21.80
2018-04-19T20:10:46.494Z,21.70
2018-04-19T20:13:14.782Z,21.70
2018-04-19T20:15:43.023Z,21.60
2018-04-19T20:18:12.074Z,21.50
2018-04-19T20:20:40.462Z,21.40
2018-04-19T20:23:08.946Z,21.40
2018-04-19T20:25:37.972Z,21.30
2018-04-19T20:28:07.023Z,21.30
2018-04-19T20:30:35.329Z,21.30
2018-04-19T20:33:03.612Z,21.30
2018-04-19T20:35:32.640Z,21.20
2018-04-19T20:38:00.905Z,21.20
2018-04-19T20:40:29.207Z,21.20
2018-04-19T20:42:57.466Z,21.20
2018-04-19T20:45:25.766Z,21.10
2018-04-19T20:47:54.104Z,21.10
2018-04-19T20:50:22.349Z,21.10
2018-04-19T20:52:51.405Z,21.00
2018-04-19T20:55:19.708Z,21.00
2018-04-19T20:57:48.742Z,21.00
2018-04-19T21:00:16.995Z,21.00
2018-04-19T21:02:45.273Z,21.00
2018-04-19T21:05:13.590Z,21.00
2018-04-19T21:07:41.922Z,20.90
2018-04-19T21:10:10.265Z,20.90
2018-04-19T21:12:38.550Z,20.90
2018-04-19T21:15:06.791Z,20.80
2018-04-19T21:17:35.083Z,20.70
2018-04-19T21:20:03.328Z,20.60
2018-04-19T21:22:31.597Z,20.50
2018-04-19T21:24:59.840Z,20.50
2018-04-19T21:27:28.085Z,20.40
2018-04-19T21:29:56.467Z,20.40
2018-04-19T21:32:24.712Z,20.30
2018-04-19T21:34:52.941Z,20.30
2018-04-19T21:37:21.245Z,20.30
2018-04-19T21:39:49.514Z,20.20
2018-04-19T21:42:17.828Z,20.20
2018-04-19T21:44:46.138Z,20.20
2018-04-19T21:47:15.183Z,20.10
2018-04-19T21:49:43.441Z,20.00
2018-04-19T21:52:11.711Z,20.10
2018-04-19T21:54:39.961Z,20.00
2018-04-19T21:57:09.016Z,19.90
2018-04-19T21:59:37.289Z,19.90
2018-04-19T22:02:05.520Z,19.90
2018-04-19T22:04:33.785Z,19.90
2018-04-19T22:07:02.049Z,19.90
2018-04-19T22:09:30.323Z,19.80
2018-04-19T22:11:58.692Z,19.80
2018-04-19T22:14:27.772Z,19.80
2018-04-19T22:16:56.010Z,19.70
2018-04-19T22:19:25.035Z,19.70
2018-04-19T22:21:53.288Z,19.70
2018-04-19T22:24:21.534Z,19.70
2018-04-19T22:26:49.863Z,19.60
2018-04-19T22:29:18.234Z,19.60
2018-04-19T22:31:46.497Z,19.50
2018-04-19T22:34:14.759Z,19.50
2018-04-19T22:36:43.047Z,19.40
2018-04-19T22:39:11.291Z,19.40
2018-04-19T22:41:39.577Z,19.40
2018-04-19T22:44:07.829Z,19.40
2018-04-19T22:46:36.100Z,19.40
2018-04-19T22:49:04.376Z,19.30
2018-04-19T22:51:32.615Z,19.20
2018-04-19T22:54:01.623Z,19.10
2018-04-19T22:56:30.636Z,19.00
2018-04-19T22:58:59.767Z,18.90
2018-04-19T23:01:28.040Z,18.90
2018-04-19T23:03:56.484Z,18.90
2018-04-19T23:06:24.992Z,18.80
2018-04-19T23:08:53.237Z,18.70
2018-04-19T23:11:22.327Z,18.60
2018-04-19T23:13:50.580Z,18.60
2018-04-19T23:16:19.651Z,18.50
2018-04-19T23:18:47.910Z,18.50
2018-04-19T23:21:16.317Z,18.40
2018-04-19T23:23:44.695Z,18.50
2018-04-19T23:26:13.047Z,18.50
2018-04-19T23:28:41.280Z,18.50
2018-04-19T23:31:09.540Z,18.40
2018-04-19T23:33:37.800Z,18.40
2018-04-19T23:36:06.847Z,18.40
2018-04-19T23:38:35.102Z,18.30
2018-04-19T23:41:03.475Z,18.30
2018-04-19T23:43:32.719Z,18.30
2018-04-19T23:46:02.469Z,18.10
2018-04-19T23:48:31.492Z,18.10
2018-04-19T23:51:00.545Z,18.00
2018-04-19T23:53:29.567Z,17.90
2018-04-19T23:55:57.822Z,17.80
2018-04-19T23:58:26.075Z,17.80
